createdAt,value
2022-08-04T00:02:28.608Z,4.10
2022-08-04T00:05:30.058Z,7.00
2022-08-04T00:08:27.167Z,6.43
2022-08-04T00:11:21.863Z,6.63
2022-08-04T00:14:13.961Z,5.03
2022-08-04T00:17:01.124Z,4.75
2022-08-04T00:19:51.354Z,3.45
2022-08-04T00:22:44.504Z,3.72
2022-08-04T00:28:21.624Z,6.50
2022-08-04T00:31:12.434Z,4.57
2022-08-04T00:34:03.628Z,7.03
2022-08-04T00:36:51.396Z,4.15
2022-08-04T00:39:39.354Z,7.32
2022-08-04T00:42:58.149Z,4.80
2022-08-04T00:46:17.817Z,4.03
2022-08-04T00:49:22.709Z,7.10
2022-08-04T00:52:32.320Z,4.38
2022-08-04T00:55:38.503Z,5.18
2022-08-04T00:58:40.291Z,3.35
2022-08-04T01:01:52.900Z,5.28
2022-08-04T01:04:51.015Z,4.00
2022-08-04T01:07:56.545Z,4.25
2022-08-04T01:10:56.394Z,6.75
2022-08-04T01:13:57.603Z,8.43
2022-08-04T01:16:53.618Z,8.18
2022-08-04T01:20:01.416Z,4.68
2022-08-04T01:23:15.669Z,5.85
2022-08-04T01:26:43.625Z,9.00
2022-08-04T01:29:34.356Z,3.42
2022-08-04T01:32:37.892Z,4.65
2022-08-04T01:35:47.407Z,3.53
2022-08-04T01:38:37.760Z,4.22
2022-08-04T01:41:32.633Z,3.60
2022-08-04T01:44:20.507Z,4.13
2022-08-04T01:47:10.224Z,5.47
2022-08-04T01:50:05.523Z,3.33
2022-08-04T01:52:56.144Z,2.90
2022-08-04T01:55:52.009Z,4.35
2022-08-04T01:58:42.845Z,5.95
2022-08-04T02:01:30.665Z,3.10
2022-08-04T02:04:23.542Z,4.68
2022-08-04T02:07:27.650Z,6.35
2022-08-04T02:10:24.887Z,11.02
2022-08-04T02:13:18.659Z,8.05
2022-08-04T02:16:11.309Z,4.70
2022-08-04T02:19:06.633Z,3.33
2022-08-04T02:22:09.630Z,3.63
2022-08-04T02:25:03.195Z,4.07
2022-08-04T02:27:59.916Z,4.03
2022-08-04T02:30:58.624Z,5.65
2022-08-04T02:33:47.656Z,5.72
2022-08-04T02:36:38.255Z,5.57
2022-08-04T02:39:32.589Z,4.22
2022-08-04T02:42:37.262Z,5.82
2022-08-04T02:45:26.551Z,4.20
2022-08-04T02:48:29.858Z,4.30
2022-08-04T02:51:21.701Z,4.63
2022-08-04T02:54:09.371Z,4.05
2022-08-04T02:57:01.177Z,4.55
2022-08-04T03:00:04.883Z,6.15
2022-08-04T03:03:02.704Z,8.50
2022-08-04T03:06:12.004Z,6.35
2022-08-04T03:09:19.947Z,5.53
2022-08-04T03:12:29.954Z,6.35
2022-08-04T03:15:46.172Z,7.28
2022-08-04T03:18:51.740Z,5.18
2022-08-04T03:22:12.034Z,7.65
2022-08-04T03:25:23.857Z,7.05
2022-08-04T03:28:46.718Z,5.82
2022-08-04T03:31:36.195Z,5.57
2022-08-04T03:34:38.564Z,4.07
2022-08-04T03:37:51.610Z,6.68
2022-08-04T03:41:05.449Z,4.20
2022-08-04T03:44:23.010Z,5.40
2022-08-04T03:47:31.173Z,3.30
2022-08-04T03:50:46.472Z,5.20
2022-08-04T03:53:44.881Z,3.60
2022-08-04T03:56:45.694Z,3.85
2022-08-04T03:59:51.333Z,5.88
2022-08-04T04:03:05.373Z,4.93
2022-08-04T04:06:17.153Z,5.97
2022-08-04T04:09:22.989Z,3.90
2022-08-04T04:12:35.115Z,6.63
2022-08-04T04:15:41.286Z,4.28
2022-08-04T04:18:53.348Z,9.43
2022-08-04T04:21:46.261Z,8.32
2022-08-04T04:24:46.711Z,4.95
2022-08-04T04:27:44.408Z,9.63
2022-08-04T04:30:40.934Z,7.05
2022-08-04T04:33:40.233Z,6.70
2022-08-04T04:36:35.604Z,4.82
2022-08-04T04:39:33.481Z,6.15
2022-08-04T04:42:40.374Z,5.22
2022-08-04T04:45:35.264Z,5.03
2022-08-04T04:48:35.497Z,4.15
2022-08-04T04:51:35.046Z,6.25
2022-08-04T04:54:32.154Z,5.47
2022-08-04T04:57:23.220Z,5.32
2022-08-04T05:00:46.128Z,6.20
2022-08-04T05:03:49.416Z,12.20
2022-08-04T05:06:55.718Z,8.32
2022-08-04T05:09:58.031Z,6.72
2022-08-04T05:14:36.806Z,6.10
2022-08-04T05:16:12.750Z,5.82
2022-08-04T05:19:11.192Z,10.73
2022-08-04T05:22:03.650Z,6.32
2022-08-04T05:24:54.692Z,4.20
2022-08-04T05:27:47.010Z,9.20
2022-08-04T05:30:47.521Z,9.07
2022-08-04T05:33:42.782Z,7.88
2022-08-04T05:36:41.364Z,8.13
2022-08-04T05:39:34.444Z,4.90
2022-08-04T05:42:23.336Z,7.13
2022-08-04T05:45:11.537Z,9.70
2022-08-04T05:47:58.790Z,16.02
2022-08-04T05:50:49.029Z,9.82
2022-08-04T05:53:36.535Z,7.55
2022-08-04T05:56:24.968Z,6.22
2022-08-04T05:59:14.002Z,10.32
2022-08-04T06:02:03.623Z,7.75
2022-08-04T06:04:52.214Z,10.25
2022-08-04T06:08:12.184Z,7.88
2022-08-04T06:10:49.483Z,9.00
2022-08-04T06:13:49.078Z,6.20
2022-08-04T06:16:40.724Z,4.90
2022-08-04T06:20:03.830Z,7.40
2022-08-04T06:22:43.894Z,9.65
2022-08-04T06:25:34.419Z,6.00
2022-08-04T06:28:22.779Z,5.90
2022-08-04T06:32:28.233Z,10.90
2022-08-04T06:34:19.261Z,5.72
2022-08-04T06:37:07.827Z,5.65
2022-08-04T06:39:57.540Z,5.60
2022-08-04T06:42:45.696Z,12.18
2022-08-04T06:45:35.835Z,6.50
2022-08-04T06:48:23.753Z,9.38
2022-08-04T06:51:25.115Z,5.47
2022-08-04T06:54:20.674Z,5.72
2022-08-04T06:57:10.731Z,10.85
2022-08-04T07:00:01.002Z,5.05
2022-08-04T07:02:52.116Z,4.45
2022-08-04T07:05:39.933Z,4.60
2022-08-04T07:08:28.200Z,5.85
2022-08-04T07:11:16.144Z,6.22
2022-08-04T07:14:05.775Z,8.88
2022-08-04T07:16:54.118Z,3.80
2022-08-04T07:19:41.337Z,7.35
2022-08-04T07:22:29.723Z,6.65
2022-08-04T07:25:19.460Z,9.70
2022-08-04T07:28:09.466Z,4.30
2022-08-04T07:30:59.552Z,4.50
2022-08-04T07:33:48.266Z,5.18
2022-08-04T07:36:57.604Z,6.93
2022-08-04T07:39:48.254Z,6.70
2022-08-04T07:42:36.841Z,3.97
2022-08-04T07:45:25.810Z,5.13
2022-08-04T07:48:15.738Z,4.07
2022-08-04T07:51:04.595Z,6.38
2022-08-04T07:53:56.366Z,6.65
2022-08-04T07:56:45.028Z,3.25
2022-08-04T07:59:31.984Z,11.95
2022-08-04T08:02:21.651Z,3.58
2022-08-04T08:05:12.391Z,4.25
2022-08-04T08:08:00.727Z,4.93
2022-08-04T08:10:49.423Z,5.75
2022-08-04T08:13:38.032Z,5.15
2022-08-04T08:16:25.366Z,6.00
2022-08-04T08:19:12.894Z,6.97
2022-08-04T08:22:02.393Z,5.40
2022-08-04T08:24:49.667Z,3.20
2022-08-04T08:27:38.630Z,5.53
2022-08-04T08:30:43.377Z,10.65
2022-08-04T08:33:30.501Z,5.15
2022-08-04T08:36:25.580Z,3.88
2022-08-04T08:39:21.579Z,3.13
2022-08-04T08:42:38.352Z,9.80
2022-08-04T08:45:30.942Z,3.83
2022-08-04T08:48:34.613Z,5.35
2022-08-04T08:51:38.515Z,4.38
2022-08-04T08:54:48.697Z,4.30
2022-08-04T08:58:00.168Z,5.88
2022-08-04T09:00:56.697Z,5.78
2022-08-04T09:04:03.356Z,7.13
2022-08-04T09:07:03.479Z,7.28
2022-08-04T09:10:04.053Z,3.50
2022-08-04T09:12:57.337Z,4.75
2022-08-04T09:15:54.460Z,5.50
2022-08-04T09:18:48.850Z,3.80
2022-08-04T09:21:40.876Z,5.30
2022-08-04T09:24:45.921Z,2.83
2022-08-04T09:27:41.886Z,3.63
2022-08-04T09:30:39.895Z,4.47
2022-08-04T09:33:44.774Z,4.05
2022-08-04T09:36:40.663Z,3.53
2022-08-04T09:39:36.272Z,3.40
2022-08-04T09:42:31.578Z,3.13
2022-08-04T09:45:43.202Z,3.25
2022-08-04T09:51:59.028Z,2.83
2022-08-04T09:54:50.417Z,3.50
2022-08-04T09:57:52.979Z,4.07
2022-08-04T10:00:50.793Z,3.50
2022-08-04T10:03:45.224Z,3.72
2022-08-04T10:06:47.710Z,2.97
2022-08-04T10:09:48.936Z,3.20
2022-08-04T10:12:45.558Z,4.68
2022-08-04T10:15:41.514Z,3.70
2022-08-04T10:18:45.327Z,2.72
2022-08-04T10:21:59.018Z,6.30
2022-08-04T10:25:02.148Z,4.10
2022-08-04T10:27:53.720Z,7.00
2022-08-04T10:30:44.476Z,2.97
2022-08-04T10:33:40.038Z,5.05
2022-08-04T10:36:33.410Z,4.63
2022-08-04T10:39:42.164Z,5.32
2022-08-04T10:42:33.321Z,4.85
2022-08-04T10:45:24.899Z,2.90
2022-08-04T10:48:34.256Z,6.57
2022-08-04T10:51:31.343Z,4.88
2022-08-04T10:54:49.726Z,3.50
2022-08-04T10:57:41.540Z,2.28
2022-08-04T11:00:31.307Z,2.80
2022-08-04T11:03:24.498Z,2.78
2022-08-04T11:06:11.915Z,4.28
2022-08-04T11:09:02.293Z,2.30
2022-08-04T11:11:56.965Z,5.53
2022-08-04T11:14:54.577Z,4.05
2022-08-04T11:17:45.206Z,4.03
2022-08-04T11:20:39.279Z,5.70
2022-08-04T11:23:33.869Z,3.58
2022-08-04T11:26:30.809Z,4.07
2022-08-04T11:29:24.404Z,11.27
2022-08-04T11:32:18.894Z,5.82
2022-08-04T11:35:11.315Z,3.97
2022-08-04T11:38:04.835Z,2.60
2022-08-04T11:41:02.792Z,3.90
2022-08-04T11:44:02.894Z,3.65
2022-08-04T11:46:55.457Z,2.80
2022-08-04T11:49:56.677Z,2.60
2022-08-04T11:52:46.791Z,3.97
2022-08-04T11:56:08.119Z,2.88
2022-08-04T11:58:50.230Z,4.07
2022-08-04T12:01:51.858Z,2.63
2022-08-04T12:04:47.398Z,4.18
2022-08-04T12:07:46.831Z,3.72
2022-08-04T12:10:45.357Z,6.85
2022-08-04T12:13:40.881Z,3.35
2022-08-04T12:16:36.763Z,2.90
2022-08-04T12:19:43.765Z,3.60
2022-08-04T12:22:45.095Z,2.50
2022-08-04T12:25:44.930Z,2.65
2022-08-04T12:29:07.354Z,6.25
2022-08-04T12:31:48.167Z,2.10
2022-08-04T12:34:43.174Z,4.10
2022-08-04T12:37:39.843Z,2.90
2022-08-04T12:40:31.224Z,5.43
2022-08-04T12:43:24.107Z,2.50
2022-08-04T12:49:03.518Z,3.15
2022-08-04T12:52:06.708Z,5.80
2022-08-04T12:54:57.603Z,4.60
2022-08-04T12:57:45.658Z,4.00
2022-08-04T13:00:41.412Z,2.58
2022-08-04T13:03:37.902Z,2.47
2022-08-04T13:06:27.802Z,4.35
2022-08-04T13:09:19.501Z,6.18
2022-08-04T13:12:13.884Z,2.83
2022-08-04T13:15:10.720Z,2.10
2022-08-04T13:18:11.830Z,2.10
2022-08-04T13:21:21.035Z,2.72
2022-08-04T13:24:22.742Z,4.57
2022-08-04T13:27:23.670Z,3.67
2022-08-04T13:30:22.779Z,3.55
2022-08-04T13:33:12.465Z,3.45
2022-08-04T13:36:01.188Z,5.32
2022-08-04T13:38:51.689Z,5.13
2022-08-04T13:41:42.535Z,2.97
2022-08-04T13:44:34.273Z,5.40
2022-08-04T13:47:28.132Z,2.45
2022-08-04T13:50:23.650Z,4.50
2022-08-04T13:53:10.910Z,3.17
2022-08-04T13:56:00.726Z,5.55
2022-08-04T13:58:51.004Z,4.40
2022-08-04T14:01:42.121Z,6.70
2022-08-04T14:04:42.619Z,4.43
2022-08-04T14:07:31.885Z,2.88
2022-08-04T14:10:19.461Z,2.92
2022-08-04T14:13:07.717Z,3.83
2022-08-04T14:16:02.262Z,8.50
2022-08-04T14:19:01.934Z,2.40
2022-08-04T14:21:49.926Z,4.22
2022-08-04T14:24:36.916Z,6.72
2022-08-04T14:27:24.566Z,3.33
2022-08-04T14:30:24.091Z,3.35
2022-08-04T14:34:02.230Z,5.10
2022-08-04T14:36:23.356Z,4.03
2022-08-04T14:39:13.067Z,3.50
2022-08-04T14:42:00.362Z,3.03
2022-08-04T14:44:57.422Z,3.92
2022-08-04T14:47:51.803Z,3.55
2022-08-04T14:50:42.494Z,3.67
2022-08-04T14:53:31.216Z,3.60
2022-08-04T14:56:44.911Z,7.22
2022-08-04T14:59:26.300Z,5.43
2022-08-04T15:02:15.906Z,4.13
2022-08-04T15:05:55.595Z,6.07
2022-08-04T15:08:13.117Z,6.20
2022-08-04T15:11:03.130Z,4.68
2022-08-04T15:13:50.444Z,6.55
2022-08-04T15:16:37.648Z,5.45
2022-08-04T15:19:41.759Z,5.35
2022-08-04T15:22:43.542Z,7.47
2022-08-04T15:25:35.036Z,3.58
2022-08-04T15:28:28.871Z,3.38
2022-08-04T15:34:27.439Z,6.03
2022-08-04T15:37:20.330Z,2.28
2022-08-04T15:40:13.573Z,2.97
2022-08-04T15:43:19.865Z,3.65
2022-08-04T15:46:42.744Z,3.63
2022-08-04T15:49:23.688Z,3.75
2022-08-04T15:52:12.787Z,2.47
2022-08-04T15:55:34.553Z,3.38
2022-08-04T15:58:23.409Z,4.68
2022-08-04T16:01:20.466Z,3.97
2022-08-04T16:04:23.827Z,3.92
2022-08-04T16:07:10.688Z,4.45
2022-08-04T16:10:40.676Z,5.50
2022-08-04T16:13:27.716Z,3.67
2022-08-04T16:16:49.155Z,3.40
2022-08-04T16:19:53.458Z,3.17
2022-08-04T16:22:42.289Z,3.38
2022-08-04T16:25:46.387Z,3.33
2022-08-04T16:28:43.013Z,4.07
2022-08-04T16:31:30.774Z,6.38
2022-08-04T16:34:48.205Z,4.30
2022-08-04T16:37:34.238Z,3.38
2022-08-04T16:43:29.377Z,3.58
2022-08-04T16:46:41.898Z,4.20
2022-08-04T16:50:03.096Z,4.57
2022-08-04T16:52:52.278Z,3.35
2022-08-04T16:55:39.918Z,4.22
2022-08-04T16:58:30.328Z,5.55
2022-08-04T17:01:28.379Z,5.60
2022-08-04T17:04:49.237Z,4.60
2022-08-04T17:08:27.992Z,4.82
2022-08-04T17:11:07.600Z,5.57
2022-08-04T17:14:03.415Z,3.13
2022-08-04T17:16:53.793Z,9.93
2022-08-04T17:19:40.646Z,6.97
2022-08-04T17:22:29.502Z,3.55
2022-08-04T17:25:17.154Z,7.53
2022-08-04T17:28:08.971Z,3.22
2022-08-04T17:31:10.958Z,2.40
2022-08-04T17:34:00.227Z,4.72
2022-08-04T17:40:09.987Z,3.70
2022-08-04T17:44:04.526Z,42.80
2022-08-04T17:46:29.237Z,21.98
2022-08-04T17:49:23.187Z,3.97
2022-08-04T17:52:37.440Z,5.60
2022-08-04T17:55:41.198Z,6.63
2022-08-04T17:58:31.019Z,5.05
2022-08-04T18:01:24.486Z,6.35
2022-08-04T18:04:27.348Z,3.20
2022-08-04T18:10:38.489Z,5.03
2022-08-04T18:13:42.884Z,3.65
2022-08-04T18:16:31.065Z,4.68
2022-08-04T18:19:19.029Z,8.48
2022-08-04T18:22:14.159Z,12.43
2022-08-04T18:25:04.202Z,15.85
2022-08-04T18:27:53.056Z,13.65
2022-08-04T18:30:54.977Z,16.35
2022-08-04T18:33:43.311Z,21.13
2022-08-04T18:36:57.311Z,23.77
2022-08-04T18:40:21.374Z,29.40
2022-08-04T18:42:54.982Z,39.75
2022-08-04T18:45:50.915Z,44.35
2022-08-04T18:48:38.745Z,33.13
2022-08-04T18:51:30.781Z,32.58
2022-08-04T18:54:18.667Z,19.38
2022-08-04T19:00:19.982Z,17.00
2022-08-04T19:03:08.589Z,10.60
2022-08-04T19:05:56.299Z,13.60
2022-08-04T19:08:45.790Z,9.80
2022-08-04T19:11:53.335Z,12.60
2022-08-04T19:14:41.413Z,13.23
2022-08-04T19:17:53.629Z,15.15
2022-08-04T19:20:40.044Z,10.32
2022-08-04T19:24:28.060Z,7.65
2022-08-04T19:26:38.535Z,6.75
2022-08-04T19:29:38.027Z,6.57
2022-08-04T19:32:27.785Z,6.85
2022-08-04T19:35:14.636Z,6.38
2022-08-04T19:38:04.011Z,6.53
2022-08-04T19:40:52.757Z,5.63
2022-08-04T19:43:43.872Z,6.20
2022-08-04T19:46:31.110Z,7.38
2022-08-04T19:50:03.317Z,12.25
2022-08-04T19:52:33.612Z,13.93
2022-08-04T19:55:37.639Z,17.08
2022-08-04T19:58:26.715Z,16.88
2022-08-04T20:01:33.423Z,18.70
2022-08-04T20:04:22.083Z,16.35
2022-08-04T20:07:14.208Z,14.10
2022-08-04T20:10:04.282Z,15.65
2022-08-04T20:15:59.431Z,11.98
2022-08-04T20:18:55.626Z,9.77
2022-08-04T20:21:56.174Z,8.70
2022-08-04T20:24:50.435Z,10.18
2022-08-04T20:27:51.622Z,10.18
2022-08-04T20:30:48.160Z,9.95
2022-08-04T20:33:36.113Z,11.63
2022-08-04T20:36:23.803Z,7.93
2022-08-04T20:39:11.113Z,7.25
2022-08-04T20:42:02.937Z,8.57
2022-08-04T20:44:50.200Z,11.32
2022-08-04T20:47:39.461Z,8.63
2022-08-04T20:50:29.865Z,7.82
2022-08-04T20:53:17.876Z,6.85
2022-08-04T20:56:05.188Z,8.70
2022-08-04T20:58:53.747Z,7.75
2022-08-04T21:01:40.896Z,7.18
2022-08-04T21:04:45.555Z,12.23
2022-08-04T21:07:36.456Z,7.95
2022-08-04T21:10:33.353Z,9.70
2022-08-04T21:13:20.202Z,10.80
2022-08-04T21:16:10.007Z,7.38
2022-08-04T21:19:17.109Z,7.72
2022-08-04T21:22:10.361Z,8.48
2022-08-04T21:24:57.467Z,7.78
2022-08-04T21:27:44.759Z,7.72
2022-08-04T21:30:52.548Z,6.45
2022-08-04T21:36:38.578Z,6.55
2022-08-04T21:39:32.652Z,5.15
2022-08-04T21:42:27.955Z,7.38
2022-08-04T21:45:17.472Z,6.40
2022-08-04T21:48:07.810Z,7.50
2022-08-04T21:50:54.924Z,7.97
2022-08-04T21:53:42.515Z,9.02
2022-08-04T21:56:31.034Z,9.45
2022-08-04T21:59:23.751Z,10.43
2022-08-04T22:02:17.520Z,10.55
2022-08-04T22:05:07.343Z,11.15
2022-08-04T22:07:55.737Z,11.13
2022-08-04T22:10:42.739Z,11.10
2022-08-04T22:13:52.501Z,11.65
2022-08-04T22:16:40.922Z,9.10
2022-08-04T22:19:49.792Z,11.80
2022-08-04T22:22:35.954Z,5.88
2022-08-04T22:25:24.828Z,7.60
2022-08-04T22:28:18.910Z,4.90
2022-08-04T22:31:23.209Z,5.10
2022-08-04T22:34:11.934Z,7.63
2022-08-04T22:37:00.007Z,8.77
2022-08-04T22:39:56.355Z,7.72
2022-08-04T22:42:44.727Z,6.22
2022-08-04T22:45:44.831Z,12.88
2022-08-04T22:48:34.246Z,6.95
2022-08-04T22:51:22.501Z,6.43
2022-08-04T22:54:12.321Z,5.85
2022-08-04T22:56:59.334Z,5.60
2022-08-04T22:59:47.613Z,8.43
2022-08-04T23:02:36.138Z,8.05
2022-08-04T23:05:35.596Z,5.10
2022-08-04T23:08:23.245Z,4.25
2022-08-04T23:11:13.943Z,11.70
2022-08-04T23:14:02.047Z,5.15
2022-08-04T23:16:49.066Z,5.78
2022-08-04T23:19:40.439Z,6.47
2022-08-04T23:22:41.993Z,4.55
2022-08-04T23:25:32.935Z,7.03
2022-08-04T23:28:36.567Z,6.85
2022-08-04T23:31:24.171Z,6.43
2022-08-04T23:34:12.292Z,6.03
2022-08-04T23:36:59.697Z,7.57
2022-08-04T23:40:14.620Z,8.23
2022-08-04T23:42:55.977Z,9.57
2022-08-04T23:46:05.131Z,6.13
2022-08-04T23:48:51.103Z,8.95
2022-08-04T23:51:39.488Z,7.22
2022-08-04T23:54:26.656Z,6.13
2022-08-04T23:57:17.318Z,5.93
